logo
Search for airport 
image banner adimage banner adimage banner ad
image banner ad

FAEG - Elgin

Located in Egnep, South Africa

ICAO - FAEG, IATA -

Data provided by Airmate  

General information

Coordinates: S34°10'17" E19°3'9"
Elevation is 1102 feet MSL.
Magnetic variation is -26° East
View others Airports in Limpopo

Operational data

Special qualification required
Current time UTC:
Current local time:
Weather at : - ( 0 km )
METAR: UUBC 172101Z 13002MPS 8000 BKN009 18/18 Q1007 R31/290150 NOSIG RMK QFE738/0984
View NOTAMs / SUP AIP / TFR affecting this airport [VIEW]
Communications frequencies: [VIEW]

Runways:

RWY identifierQFULength (ft)Width (ft)SurfaceLDA (ft)
14118°2265120DIRT
32298°2265120DIRT

Airport contact information

Address: Egnep South Africa

Satellite view of FAEG